sensor_id;sensor_type;location;lat;lon;timestamp;temperature;humidity
41344;DHT22;27089;50.022;7.604;2023-06-22T00:01:17;19.80;99.90
41344;DHT22;27089;50.022;7.604;2023-06-22T00:03:44;19.70;99.90
41344;DHT22;27089;50.022;7.604;2023-06-22T00:06:12;19.60;99.90
41344;DHT22;27089;50.022;7.604;2023-06-22T00:08:39;19.50;99.90
41344;DHT22;27089;50.022;7.604;2023-06-22T00:11:06;19.50;99.90
41344;DHT22;27089;50.022;7.604;2023-06-22T00:13:34;19.50;99.90
41344;DHT22;27089;50.022;7.604;2023-06-22T00:16:02;19.60;99.90
41344;DHT22;27089;50.022;7.604;2023-06-22T00:18:28;19.60;99.90
41344;DHT22;27089;50.022;7.604;2023-06-22T00:20:56;19.60;99.90
41344;DHT22;27089;50.022;7.604;2023-06-22T00:23:24;19.70;99.90
41344;DHT22;27089;50.022;7.604;2023-06-22T00:25:52;19.70;99.90
41344;DHT22;27089;50.022;7.604;2023-06-22T00:28:19;19.60;99.90
41344;DHT22;27089;50.022;7.604;2023-06-22T00:30:48;19.50;99.90
41344;DHT22;27089;50.022;7.604;2023-06-22T00:33:15;19.50;99.90
41344;DHT22;27089;50.022;7.604;2023-06-22T00:35:42;19.50;99.90
41344;DHT22;27089;50.022;7.604;2023-06-22T00:38:10;19.50;99.90
41344;DHT22;27089;50.022;7.604;2023-06-22T00:40:37;19.60;99.90
41344;DHT22;27089;50.022;7.604;2023-06-22T00:43:05;19.50;99.90
41344;DHT22;27089;50.022;7.604;2023-06-22T00:45:32;19.50;99.90
41344;DHT22;27089;50.022;7.604;2023-06-22T00:48:01;19.50;99.90
41344;DHT22;27089;50.022;7.604;2023-06-22T00:50:31;19.50;99.90
41344;DHT22;27089;50.022;7.604;2023-06-22T00:53:01;19.50;99.90
41344;DHT22;27089;50.022;7.604;2023-06-22T00:55:33;19.40;99.90
41344;DHT22;27089;50.022;7.604;2023-06-22T00:58:02;19.20;99.90
41344;DHT22;27089;50.022;7.604;2023-06-22T01:00:33;19.20;99.90
41344;DHT22;27089;50.022;7.604;2023-06-22T01:03:02;19.20;99.90
41344;DHT22;27089;50.022;7.604;2023-06-22T01:05:31;19.10;99.90
41344;DHT22;27089;50.022;7.604;2023-06-22T01:08:08;19.10;99.90
41344;DHT22;27089;50.022;7.604;2023-06-22T01:10:41;19.20;99.90
41344;DHT22;27089;50.022;7.604;2023-06-22T01:13:16;19.10;99.90
41344;DHT22;27089;50.022;7.604;2023-06-22T01:15:49;19.20;99.90
41344;DHT22;27089;50.022;7.604;2023-06-22T01:18:19;19.10;99.90
41344;DHT22;27089;50.022;7.604;2023-06-22T01:20:52;19.20;99.90
41344;DHT22;27089;50.022;7.604;2023-06-22T01:23:27;19.10;99.90
41344;DHT22;27089;50.022;7.604;2023-06-22T01:26:02;19.00;99.90
41344;DHT22;27089;50.022;7.604;2023-06-22T01:28:42;18.90;99.90
41344;DHT22;27089;50.022;7.604;2023-06-22T01:31:11;18.80;99.90
41344;DHT22;27089;50.022;7.604;2023-06-22T01:33:43;18.70;99.90
41344;DHT22;27089;50.022;7.604;2023-06-22T01:36:10;18.70;99.90
41344;DHT22;27089;50.022;7.604;2023-06-22T01:38:38;18.60;99.90
41344;DHT22;27089;50.022;7.604;2023-06-22T01:41:06;18.70;99.90
41344;DHT22;27089;50.022;7.604;2023-06-22T01:43:33;18.70;99.90
41344;DHT22;27089;50.022;7.604;2023-06-22T01:46:03;18.80;99.90
41344;DHT22;27089;50.022;7.604;2023-06-22T01:48:30;18.80;99.90
41344;DHT22;27089;50.022;7.604;2023-06-22T01:50:58;18.90;99.90
41344;DHT22;27089;50.022;7.604;2023-06-22T01:53:25;18.90;99.90
41344;DHT22;27089;50.022;7.604;2023-06-22T01:55:52;19.00;99.90
41344;DHT22;27089;50.022;7.604;2023-06-22T01:58:20;19.00;99.90
41344;DHT22;27089;50.022;7.604;2023-06-22T02:00:55;19.00;99.90
41344;DHT22;27089;50.022;7.604;2023-06-22T02:03:30;19.00;99.90
41344;DHT22;27089;50.022;7.604;2023-06-22T02:06:02;19.00;99.90
41344;DHT22;27089;50.022;7.604;2023-06-22T02:08:32;19.00;99.90
41344;DHT22;27089;50.022;7.604;2023-06-22T02:11:02;19.00;99.90
41344;DHT22;27089;50.022;7.604;2023-06-22T02:13:30;19.00;99.90
41344;DHT22;27089;50.022;7.604;2023-06-22T02:15:58;19.00;99.90
41344;DHT22;27089;50.022;7.604;2023-06-22T02:18:26;18.80;99.90
41344;DHT22;27089;50.022;7.604;2023-06-22T02:20:53;18.60;99.90
41344;DHT22;27089;50.022;7.604;2023-06-22T02:23:20;18.50;99.90
41344;DHT22;27089;50.022;7.604;2023-06-22T02:25:47;18.40;99.90
41344;DHT22;27089;50.022;7.604;2023-06-22T02:28:14;18.40;99.90
41344;DHT22;27089;50.022;7.604;2023-06-22T02:30:41;18.40;99.90
41344;DHT22;27089;50.022;7.604;2023-06-22T02:33:08;18.40;99.90
41344;DHT22;27089;50.022;7.604;2023-06-22T02:35:37;18.40;99.90
41344;DHT22;27089;50.022;7.604;2023-06-22T02:38:05;18.40;99.90
41344;DHT22;27089;50.022;7.604;2023-06-22T02:40:33;18.40;99.90
41344;DHT22;27089;50.022;7.604;2023-06-22T02:43:00;18.40;99.90
41344;DHT22;27089;50.022;7.604;2023-06-22T02:45:28;18.40;99.90
41344;DHT22;27089;50.022;7.604;2023-06-22T02:47:55;18.40;99.90
41344;DHT22;27089;50.022;7.604;2023-06-22T02:50:23;18.40;99.90
41344;DHT22;27089;50.022;7.604;2023-06-22T02:52:51;18.40;99.90
41344;DHT22;27089;50.022;7.604;2023-06-22T02:55:18;18.40;99.90
41344;DHT22;27089;50.022;7.604;2023-06-22T02:57:45;18.50;99.90
41344;DHT22;27089;50.022;7.604;2023-06-22T03:00:14;18.50;99.90
41344;DHT22;27089;50.022;7.604;2023-06-22T03:02:43;18.50;99.90
41344;DHT22;27089;50.022;7.604;2023-06-22T03:05:11;18.50;99.90
41344;DHT22;27089;50.022;7.604;2023-06-22T03:07:40;18.40;99.90
41344;DHT22;27089;50.022;7.604;2023-06-22T03:10:09;18.40;99.90
41344;DHT22;27089;50.022;7.604;2023-06-22T03:12:37;18.40;99.90
41344;DHT22;27089;50.022;7.604;2023-06-22T03:15:05;18.40;99.90
41344;DHT22;27089;50.022;7.604;2023-06-22T03:17:33;18.30;99.90
41344;DHT22;27089;50.022;7.604;2023-06-22T03:20:00;18.30;99.90
41344;DHT22;27089;50.022;7.604;2023-06-22T03:22:32;18.20;99.90
41344;DHT22;27089;50.022;7.604;2023-06-22T03:24:59;18.20;99.90
41344;DHT22;27089;50.022;7.604;2023-06-22T03:27:28;18.10;99.90
41344;DHT22;27089;50.022;7.604;2023-06-22T03:29:56;18.10;99.90
41344;DHT22;27089;50.022;7.604;2023-06-22T03:32:23;18.00;99.90
41344;DHT22;27089;50.022;7.604;2023-06-22T03:34:51;18.00;99.90
41344;DHT22;27089;50.022;7.604;2023-06-22T03:37:18;18.00;99.90
41344;DHT22;27089;50.022;7.604;2023-06-22T03:39:44;18.00;99.90
41344;DHT22;27089;50.022;7.604;2023-06-22T03:42:11;18.00;99.90
41344;DHT22;27089;50.022;7.604;2023-06-22T03:44:40;18.00;99.90
41344;DHT22;27089;50.022;7.604;2023-06-22T03:47:07;18.10;99.90
41344;DHT22;27089;50.022;7.604;2023-06-22T03:49:35;18.10;99.90
41344;DHT22;27089;50.022;7.604;2023-06-22T03:52:02;18.20;99.90
41344;DHT22;27089;50.022;7.604;2023-06-22T03:54:29;18.20;99.90
41344;DHT22;27089;50.022;7.604;2023-06-22T03:56:57;18.30;99.90
41344;DHT22;27089;50.022;7.604;2023-06-22T03:59:24;18.30;99.90
41344;DHT22;27089;50.022;7.604;2023-06-22T04:01:53;18.30;99.90
41344;DHT22;27089;50.022;7.604;2023-06-22T04:04:20;18.30;99.90
41344;DHT22;27089;50.022;7.604;2023-06-22T04:06:47;18.30;99.90
41344;DHT22;27089;50.022;7.604;2023-06-22T04:09:14;18.30;99.90
41344;DHT22;27089;50.022;7.604;2023-06-22T04:11:41;18.20;99.90
41344;DHT22;27089;50.022;7.604;2023-06-22T04:14:07;18.20;99.90
41344;DHT22;27089;50.022;7.604;2023-06-22T04:16:34;18.30;99.90
41344;DHT22;27089;50.022;7.604;2023-06-22T04:19:03;18.30;99.90
41344;DHT22;27089;50.022;7.604;2023-06-22T04:21:30;18.30;99.90
41344;DHT22;27089;50.022;7.604;2023-06-22T04:23:57;18.30;99.90
41344;DHT22;27089;50.022;7.604;2023-06-22T04:26:23;18.20;99.90
41344;DHT22;27089;50.022;7.604;2023-06-22T04:28:50;18.30;99.90
41344;DHT22;27089;50.022;7.604;2023-06-22T04:31:21;18.40;99.90
41344;DHT22;27089;50.022;7.604;2023-06-22T04:33:56;18.40;99.90
41344;DHT22;27089;50.022;7.604;2023-06-22T04:36:24;18.50;99.90
41344;DHT22;27089;50.022;7.604;2023-06-22T04:38:56;18.60;99.90
41344;DHT22;27089;50.022;7.604;2023-06-22T04:41:23;18.70;99.90
41344;DHT22;27089;50.022;7.604;2023-06-22T04:43:50;18.80;99.90
41344;DHT22;27089;50.022;7.604;2023-06-22T04:46:19;18.90;99.90
41344;DHT22;27089;50.022;7.604;2023-06-22T04:48:46;19.10;99.90
41344;DHT22;27089;50.022;7.604;2023-06-22T04:51:13;19.20;99.90
41344;DHT22;27089;50.022;7.604;2023-06-22T04:53:41;19.50;99.90
41344;DHT22;27089;50.022;7.604;2023-06-22T04:56:08;19.70;99.90
41344;DHT22;27089;50.022;7.604;2023-06-22T04:58:35;20.00;99.90
41344;DHT22;27089;50.022;7.604;2023-06-22T05:01:02;20.50;99.90
41344;DHT22;27089;50.022;7.604;2023-06-22T05:03:30;21.00;99.90
41344;DHT22;27089;50.022;7.604;2023-06-22T05:05:57;21.40;99.90
41344;DHT22;27089;50.022;7.604;2023-06-22T05:08:24;21.20;99.90
41344;DHT22;27089;50.022;7.604;2023-06-22T05:10:55;21.00;99.90
41344;DHT22;27089;50.022;7.604;2023-06-22T05:13:22;20.90;99.90
41344;DHT22;27089;50.022;7.604;2023-06-22T05:15:52;20.70;99.90
41344;DHT22;27089;50.022;7.604;2023-06-22T05:18:26;20.30;99.90
41344;DHT22;27089;50.022;7.604;2023-06-22T05:20:53;20.20;99.90
41344;DHT22;27089;50.022;7.604;2023-06-22T05:23:20;20.40;99.90
41344;DHT22;27089;50.022;7.604;2023-06-22T05:25:47;20.40;99.90
41344;DHT22;27089;50.022;7.604;2023-06-22T05:28:15;20.40;99.90
41344;DHT22;27089;50.022;7.604;2023-06-22T05:30:42;20.50;99.90
41344;DHT22;27089;50.022;7.604;2023-06-22T05:33:09;20.60;99.90
41344;DHT22;27089;50.022;7.604;2023-06-22T05:35:37;20.70;99.90
41344;DHT22;27089;50.022;7.604;2023-06-22T05:38:04;20.90;99.90
41344;DHT22;27089;50.022;7.604;2023-06-22T05:40:31;21.40;99.90
41344;DHT22;27089;50.022;7.604;2023-06-22T05:42:58;21.80;99.90
41344;DHT22;27089;50.022;7.604;2023-06-22T05:45:28;22.10;99.90
41344;DHT22;27089;50.022;7.604;2023-06-22T05:47:55;22.50;99.90
41344;DHT22;27089;50.022;7.604;2023-06-22T05:50:22;22.80;99.90
41344;DHT22;27089;50.022;7.604;2023-06-22T05:52:49;22.70;99.90
41344;DHT22;27089;50.022;7.604;2023-06-22T05:55:16;22.60;99.90
41344;DHT22;27089;50.022;7.604;2023-06-22T05:57:44;22.70;99.90
41344;DHT22;27089;50.022;7.604;2023-06-22T06:00:12;22.70;99.90
41344;DHT22;27089;50.022;7.604;2023-06-22T06:02:40;22.80;99.90
41344;DHT22;27089;50.022;7.604;2023-06-22T06:05:10;22.90;99.90
41344;DHT22;27089;50.022;7.604;2023-06-22T06:07:37;23.00;99.90
41344;DHT22;27089;50.022;7.604;2023-06-22T06:10:04;23.20;99.90
41344;DHT22;27089;50.022;7.604;2023-06-22T06:12:32;23.60;99.90
41344;DHT22;27089;50.022;7.604;2023-06-22T06:14:59;24.40;99.90
41344;DHT22;27089;50.022;7.604;2023-06-22T06:17:26;25.40;99.90
41344;DHT22;27089;50.022;7.604;2023-06-22T06:19:54;25.70;99.90
41344;DHT22;27089;50.022;7.604;2023-06-22T06:22:21;25.60;99.90
41344;DHT22;27089;50.022;7.604;2023-06-22T06:24:49;26.00;99.90
41344;DHT22;27089;50.022;7.604;2023-06-22T06:27:16;26.70;99.90
41344;DHT22;27089;50.022;7.604;2023-06-22T06:29:45;27.10;99.90
41344;DHT22;27089;50.022;7.604;2023-06-22T06:32:14;27.60;99.90
41344;DHT22;27089;50.022;7.604;2023-06-22T06:34:41;27.40;99.90
41344;DHT22;27089;50.022;7.604;2023-06-22T06:37:10;26.60;99.90
41344;DHT22;27089;50.022;7.604;2023-06-22T06:39:37;26.40;99.90
41344;DHT22;27089;50.022;7.604;2023-06-22T06:42:05;27.10;99.90
41344;DHT22;27089;50.022;7.604;2023-06-22T06:44:32;28.00;99.90
41344;DHT22;27089;50.022;7.604;2023-06-22T06:46:59;28.90;99.90
41344;DHT22;27089;50.022;7.604;2023-06-22T06:49:26;29.30;99.90
41344;DHT22;27089;50.022;7.604;2023-06-22T06:51:53;29.30;99.90
41344;DHT22;27089;50.022;7.604;2023-06-22T06:54:22;30.30;99.90
41344;DHT22;27089;50.022;7.604;2023-06-22T06:56:49;30.90;99.90
41344;DHT22;27089;50.022;7.604;2023-06-22T06:59:16;31.00;99.90
41344;DHT22;27089;50.022;7.604;2023-06-22T07:01:43;31.70;99.90
41344;DHT22;27089;50.022;7.604;2023-06-22T07:04:10;30.80;99.90
41344;DHT22;27089;50.022;7.604;2023-06-22T07:06:37;31.30;99.90
41344;DHT22;27089;50.022;7.604;2023-06-22T07:09:04;31.40;99.90
41344;DHT22;27089;50.022;7.604;2023-06-22T07:11:33;31.90;99.90
41344;DHT22;27089;50.022;7.604;2023-06-22T07:14:01;31.80;99.90
41344;DHT22;27089;50.022;7.604;2023-06-22T07:16:28;32.00;99.90
41344;DHT22;27089;50.022;7.604;2023-06-22T07:18:56;32.10;99.90
41344;DHT22;27089;50.022;7.604;2023-06-22T07:21:23;31.90;99.90
41344;DHT22;27089;50.022;7.604;2023-06-22T07:23:50;31.60;99.90
41344;DHT22;27089;50.022;7.604;2023-06-22T07:26:17;31.40;99.90
41344;DHT22;27089;50.022;7.604;2023-06-22T07:28:46;31.90;99.90
41344;DHT22;27089;50.022;7.604;2023-06-22T07:31:13;32.80;99.90
41344;DHT22;27089;50.022;7.604;2023-06-22T07:33:40;32.90;99.90
41344;DHT22;27089;50.022;7.604;2023-06-22T07:36:07;33.30;99.90
41344;DHT22;27089;50.022;7.604;2023-06-22T07:38:34;32.90;99.90
41344;DHT22;27089;50.022;7.604;2023-06-22T07:41:02;32.40;99.90
41344;DHT22;27089;50.022;7.604;2023-06-22T07:43:30;32.50;99.90
41344;DHT22;27089;50.022;7.604;2023-06-22T07:46:00;32.30;99.90
41344;DHT22;27089;50.022;7.604;2023-06-22T07:48:27;32.40;99.90
41344;DHT22;27089;50.022;7.604;2023-06-22T07:50:54;33.50;99.90
41344;DHT22;27089;50.022;7.604;2023-06-22T07:53:21;33.20;99.90
41344;DHT22;27089;50.022;7.604;2023-06-22T07:55:48;32.80;99.90
41344;DHT22;27089;50.022;7.604;2023-06-22T07:58:15;32.60;99.90
41344;DHT22;27089;50.022;7.604;2023-06-22T08:00:44;31.60;99.90
41344;DHT22;27089;50.022;7.604;2023-06-22T08:03:12;30.00;99.90
41344;DHT22;27089;50.022;7.604;2023-06-22T08:05:39;30.00;99.90
41344;DHT22;27089;50.022;7.604;2023-06-22T08:08:06;29.90;99.90
41344;DHT22;27089;50.022;7.604;2023-06-22T08:10:33;30.70;99.90
41344;DHT22;27089;50.022;7.604;2023-06-22T08:13:01;30.80;99.90
41344;DHT22;27089;50.022;7.604;2023-06-22T08:15:28;30.70;99.90
41344;DHT22;27089;50.022;7.604;2023-06-22T08:17:55;30.80;99.90
41344;DHT22;27089;50.022;7.604;2023-06-22T08:20:24;31.50;99.90
41344;DHT22;27089;50.022;7.604;2023-06-22T08:22:54;31.30;99.90
41344;DHT22;27089;50.022;7.604;2023-06-22T08:25:21;31.50;99.90
41344;DHT22;27089;50.022;7.604;2023-06-22T08:27:48;31.10;99.90
41344;DHT22;27089;50.022;7.604;2023-06-22T08:30:15;31.00;99.90
41344;DHT22;27089;50.022;7.604;2023-06-22T08:32:42;31.80;99.90
41344;DHT22;27089;50.022;7.604;2023-06-22T08:35:09;32.00;99.90
41344;DHT22;27089;50.022;7.604;2023-06-22T08:37:38;32.30;99.90
41344;DHT22;27089;50.022;7.604;2023-06-22T08:40:06;32.80;99.90
41344;DHT22;27089;50.022;7.604;2023-06-22T08:42:35;33.10;99.90
41344;DHT22;27089;50.022;7.604;2023-06-22T08:45:02;32.80;99.90
41344;DHT22;27089;50.022;7.604;2023-06-22T08:47:29;32.80;99.90
41344;DHT22;27089;50.022;7.604;2023-06-22T08:49:56;32.80;99.90
41344;DHT22;27089;50.022;7.604;2023-06-22T08:52:23;32.50;99.90
41344;DHT22;27089;50.022;7.604;2023-06-22T08:54:53;32.10;99.90
41344;DHT22;27089;50.022;7.604;2023-06-22T08:57:21;32.20;99.90
41344;DHT22;27089;50.022;7.604;2023-06-22T08:59:47;31.40;99.90
41344;DHT22;27089;50.022;7.604;2023-06-22T09:02:14;30.00;99.90
41344;DHT22;27089;50.022;7.604;2023-06-22T09:04:42;29.10;99.90
41344;DHT22;27089;50.022;7.604;2023-06-22T09:07:09;28.30;99.90
41344;DHT22;27089;50.022;7.604;2023-06-22T09:09:37;27.40;99.90
41344;DHT22;27089;50.022;7.604;2023-06-22T09:12:06;26.70;99.90
41344;DHT22;27089;50.022;7.604;2023-06-22T09:14:33;26.10;99.90
41344;DHT22;27089;50.022;7.604;2023-06-22T09:17:00;26.00;99.90
41344;DHT22;27089;50.022;7.604;2023-06-22T09:19:28;25.90;99.90
41344;DHT22;27089;50.022;7.604;2023-06-22T09:21:55;25.90;99.90
41344;DHT22;27089;50.022;7.604;2023-06-22T09:24:22;25.80;99.90
41344;DHT22;27089;50.022;7.604;2023-06-22T09:26:49;25.90;99.90
41344;DHT22;27089;50.022;7.604;2023-06-22T09:29:17;25.80;99.90
41344;DHT22;27089;50.022;7.604;2023-06-22T09:31:44;26.00;99.90
41344;DHT22;27089;50.022;7.604;2023-06-22T09:34:11;26.20;99.90
41344;DHT22;27089;50.022;7.604;2023-06-22T09:36:38;26.20;99.90
41344;DHT22;27089;50.022;7.604;2023-06-22T09:39:06;26.70;99.90
41344;DHT22;27089;50.022;7.604;2023-06-22T09:41:33;27.10;99.90
41344;DHT22;27089;50.022;7.604;2023-06-22T09:44:00;27.90;99.90
41344;DHT22;27089;50.022;7.604;2023-06-22T09:46:28;28.50;99.90
41344;DHT22;27089;50.022;7.604;2023-06-22T09:48:55;28.40;99.90
41344;DHT22;27089;50.022;7.604;2023-06-22T09:51:22;27.90;99.90
41344;DHT22;27089;50.022;7.604;2023-06-22T09:53:49;27.50;99.90
41344;DHT22;27089;50.022;7.604;2023-06-22T09:56:16;28.00;99.90
41344;DHT22;27089;50.022;7.604;2023-06-22T09:58:43;27.60;99.90
41344;DHT22;27089;50.022;7.604;2023-06-22T10:01:12;27.20;99.90
41344;DHT22;27089;50.022;7.604;2023-06-22T10:03:41;26.90;99.90
41344;DHT22;27089;50.022;7.604;2023-06-22T10:06:08;26.70;99.90
41344;DHT22;27089;50.022;7.604;2023-06-22T10:08:35;26.60;99.90
41344;DHT22;27089;50.022;7.604;2023-06-22T10:11:03;26.50;99.90
41344;DHT22;27089;50.022;7.604;2023-06-22T10:13:30;26.50;99.90
41344;DHT22;27089;50.022;7.604;2023-06-22T10:15:57;26.60;99.90
41344;DHT22;27089;50.022;7.604;2023-06-22T10:18:24;26.30;99.90
41344;DHT22;27089;50.022;7.604;2023-06-22T10:20:52;26.30;99.90
41344;DHT22;27089;50.022;7.604;2023-06-22T10:23:20;26.50;99.90
41344;DHT22;27089;50.022;7.604;2023-06-22T10:25:47;26.50;99.90
41344;DHT22;27089;50.022;7.604;2023-06-22T10:28:14;27.10;99.90
41344;DHT22;27089;50.022;7.604;2023-06-22T10:30:41;27.20;99.90
41344;DHT22;27089;50.022;7.604;2023-06-22T10:33:08;27.50;99.90
41344;DHT22;27089;50.022;7.604;2023-06-22T10:35:35;27.60;99.90
41344;DHT22;27089;50.022;7.604;2023-06-22T10:38:04;27.70;99.90
41344;DHT22;27089;50.022;7.604;2023-06-22T10:40:32;28.00;99.90
41344;DHT22;27089;50.022;7.604;2023-06-22T10:42:59;27.90;99.90
41344;DHT22;27089;50.022;7.604;2023-06-22T10:45:26;28.10;99.90
41344;DHT22;27089;50.022;7.604;2023-06-22T10:47:54;28.50;99.90
41344;DHT22;27089;50.022;7.604;2023-06-22T10:50:21;28.40;99.90
41344;DHT22;27089;50.022;7.604;2023-06-22T10:52:49;28.80;99.90
41344;DHT22;27089;50.022;7.604;2023-06-22T10:55:19;28.90;99.90
41344;DHT22;27089;50.022;7.604;2023-06-22T10:57:46;28.40;99.90
41344;DHT22;27089;50.022;7.604;2023-06-22T11:00:14;28.30;99.90
41344;DHT22;27089;50.022;7.604;2023-06-22T11:02:41;28.30;99.90
41344;DHT22;27089;50.022;7.604;2023-06-22T11:05:08;28.20;99.90
41344;DHT22;27089;50.022;7.604;2023-06-22T11:07:37;28.40;99.90
41344;DHT22;27089;50.022;7.604;2023-06-22T11:10:04;28.20;99.90
41344;DHT22;27089;50.022;7.604;2023-06-22T11:12:33;28.30;99.90
41344;DHT22;27089;50.022;7.604;2023-06-22T11:15:00;28.50;99.90
41344;DHT22;27089;50.022;7.604;2023-06-22T11:17:27;28.80;99.90
41344;DHT22;27089;50.022;7.604;2023-06-22T11:19:54;28.80;99.90
41344;DHT22;27089;50.022;7.604;2023-06-22T11:22:21;29.10;99.90
41344;DHT22;27089;50.022;7.604;2023-06-22T11:24:47;29.00;99.90
41344;DHT22;27089;50.022;7.604;2023-06-22T11:27:14;28.80;99.90
41344;DHT22;27089;50.022;7.604;2023-06-22T11:29:43;28.60;99.90
41344;DHT22;27089;50.022;7.604;2023-06-22T11:32:10;28.80;99.90
41344;DHT22;27089;50.022;7.604;2023-06-22T11:34:37;28.60;99.90
41344;DHT22;27089;50.022;7.604;2023-06-22T11:37:04;28.60;99.90
41344;DHT22;27089;50.022;7.604;2023-06-22T11:39:31;28.80;99.90
41344;DHT22;27089;50.022;7.604;2023-06-22T11:41:58;29.20;99.90
41344;DHT22;27089;50.022;7.604;2023-06-22T11:44:25;29.70;99.90
41344;DHT22;27089;50.022;7.604;2023-06-22T11:46:53;29.90;99.90
41344;DHT22;27089;50.022;7.604;2023-06-22T11:49:20;30.10;99.90
41344;DHT22;27089;50.022;7.604;2023-06-22T11:51:47;30.00;99.90
41344;DHT22;27089;50.022;7.604;2023-06-22T11:54:14;30.00;99.90
41344;DHT22;27089;50.022;7.604;2023-06-22T11:56:41;29.60;99.90
41344;DHT22;27089;50.022;7.604;2023-06-22T11:59:08;29.50;99.90
41344;DHT22;27089;50.022;7.604;2023-06-22T12:01:35;29.30;99.90
41344;DHT22;27089;50.022;7.604;2023-06-22T12:04:04;29.30;99.90
41344;DHT22;27089;50.022;7.604;2023-06-22T12:06:31;29.50;99.90
41344;DHT22;27089;50.022;7.604;2023-06-22T12:08:58;30.00;99.90
41344;DHT22;27089;50.022;7.604;2023-06-22T12:11:25;30.00;99.90
41344;DHT22;27089;50.022;7.604;2023-06-22T12:13:52;30.00;99.90
41344;DHT22;27089;50.022;7.604;2023-06-22T12:16:19;30.20;99.90
41344;DHT22;27089;50.022;7.604;2023-06-22T12:18:47;30.50;99.90
41344;DHT22;27089;50.022;7.604;2023-06-22T12:21:16;30.90;99.90
41344;DHT22;27089;50.022;7.604;2023-06-22T12:23:43;31.10;99.90
41344;DHT22;27089;50.022;7.604;2023-06-22T12:26:10;31.10;99.90
41344;DHT22;27089;50.022;7.604;2023-06-22T12:28:37;31.20;99.90
41344;DHT22;27089;50.022;7.604;2023-06-22T12:31:04;30.90;99.90
41344;DHT22;27089;50.022;7.604;2023-06-22T12:33:31;30.50;99.90
41344;DHT22;27089;50.022;7.604;2023-06-22T12:35:58;30.50;99.90
41344;DHT22;27089;50.022;7.604;2023-06-22T12:38:26;30.40;99.90
41344;DHT22;27089;50.022;7.604;2023-06-22T12:40:53;30.20;99.90
41344;DHT22;27089;50.022;7.604;2023-06-22T12:43:20;29.90;99.90
41344;DHT22;27089;50.022;7.604;2023-06-22T12:45:47;29.70;99.90
41344;DHT22;27089;50.022;7.604;2023-06-22T12:48:13;29.70;99.90
41344;DHT22;27089;50.022;7.604;2023-06-22T12:50:41;29.70;99.90
41344;DHT22;27089;50.022;7.604;2023-06-22T12:53:08;29.70;99.90
41344;DHT22;27089;50.022;7.604;2023-06-22T12:55:36;29.60;99.90
41344;DHT22;27089;50.022;7.604;2023-06-22T12:58:03;29.40;99.90
41344;DHT22;27089;50.022;7.604;2023-06-22T13:00:30;29.60;99.90
41344;DHT22;27089;50.022;7.604;2023-06-22T13:02:57;29.90;99.90
41344;DHT22;27089;50.022;7.604;2023-06-22T13:05:24;30.10;99.90
41344;DHT22;27089;50.022;7.604;2023-06-22T13:07:51;30.50;99.90
41344;DHT22;27089;50.022;7.604;2023-06-22T13:10:18;30.30;99.90
41344;DHT22;27089;50.022;7.604;2023-06-22T13:12:47;30.50;99.90
41344;DHT22;27089;50.022;7.604;2023-06-22T13:15:14;30.50;99.90
41344;DHT22;27089;50.022;7.604;2023-06-22T13:17:40;30.60;99.90
41344;DHT22;27089;50.022;7.604;2023-06-22T13:20:08;30.40;99.90
41344;DHT22;27089;50.022;7.604;2023-06-22T13:22:35;30.30;99.90
41344;DHT22;27089;50.022;7.604;2023-06-22T13:25:06;30.20;99.90
41344;DHT22;27089;50.022;7.604;2023-06-22T13:27:35;30.30;99.90
41344;DHT22;27089;50.022;7.604;2023-06-22T13:30:04;30.60;99.90
41344;DHT22;27089;50.022;7.604;2023-06-22T13:32:32;30.80;99.90
41344;DHT22;27089;50.022;7.604;2023-06-22T13:34:58;31.10;99.90
41344;DHT22;27089;50.022;7.604;2023-06-22T13:37:26;30.80;99.90
41344;DHT22;27089;50.022;7.604;2023-06-22T13:39:53;30.30;99.90
41344;DHT22;27089;50.022;7.604;2023-06-22T13:42:21;30.00;99.90
41344;DHT22;27089;50.022;7.604;2023-06-22T13:44:48;29.50;99.90
41344;DHT22;27089;50.022;7.604;2023-06-22T13:47:17;29.40;99.90
41344;DHT22;27089;50.022;7.604;2023-06-22T13:49:43;29.20;99.90
41344;DHT22;27089;50.022;7.604;2023-06-22T13:52:10;29.30;99.90
41344;DHT22;27089;50.022;7.604;2023-06-22T13:54:38;29.10;99.90
41344;DHT22;27089;50.022;7.604;2023-06-22T13:57:06;29.00;99.90
41344;DHT22;27089;50.022;7.604;2023-06-22T13:59:33;29.00;99.90
41344;DHT22;27089;50.022;7.604;2023-06-22T14:02:00;28.90;99.90
41344;DHT22;27089;50.022;7.604;2023-06-22T14:04:28;28.90;99.90
41344;DHT22;27089;50.022;7.604;2023-06-22T14:06:55;28.80;99.90
41344;DHT22;27089;50.022;7.604;2023-06-22T14:09:22;28.70;99.90
41344;DHT22;27089;50.022;7.604;2023-06-22T14:11:49;28.00;99.90
41344;DHT22;27089;50.022;7.604;2023-06-22T14:14:16;26.80;99.90
41344;DHT22;27089;50.022;7.604;2023-06-22T14:16:43;25.40;99.90
41344;DHT22;27089;50.022;7.604;2023-06-22T14:19:10;24.00;99.90
41344;DHT22;27089;50.022;7.604;2023-06-22T14:21:38;23.40;99.90
41344;DHT22;27089;50.022;7.604;2023-06-22T14:24:05;23.30;99.90
41344;DHT22;27089;50.022;7.604;2023-06-22T14:26:32;23.60;99.90
41344;DHT22;27089;50.022;7.604;2023-06-22T14:28:59;23.80;99.90
41344;DHT22;27089;50.022;7.604;2023-06-22T14:31:26;24.10;99.90
41344;DHT22;27089;50.022;7.604;2023-06-22T14:33:53;24.20;99.90
41344;DHT22;27089;50.022;7.604;2023-06-22T14:36:20;24.10;99.90
41344;DHT22;27089;50.022;7.604;2023-06-22T14:38:48;24.00;99.90
41344;DHT22;27089;50.022;7.604;2023-06-22T14:41:15;23.80;99.90
41344;DHT22;27089;50.022;7.604;2023-06-22T14:43:47;23.70;99.90
41344;DHT22;27089;50.022;7.604;2023-06-22T14:46:14;23.60;99.90
41344;DHT22;27089;50.022;7.604;2023-06-22T14:48:41;23.50;99.90
41344;DHT22;27089;50.022;7.604;2023-06-22T14:51:08;23.60;99.90
41344;DHT22;27089;50.022;7.604;2023-06-22T14:53:36;23.70;99.90
41344;DHT22;27089;50.022;7.604;2023-06-22T14:56:04;23.70;99.90
41344;DHT22;27089;50.022;7.604;2023-06-22T14:58:32;23.70;99.90
41344;DHT22;27089;50.022;7.604;2023-06-22T15:00:59;23.80;99.90
41344;DHT22;27089;50.022;7.604;2023-06-22T15:03:27;23.80;99.90
41344;DHT22;27089;50.022;7.604;2023-06-22T15:05:56;23.80;99.90
41344;DHT22;27089;50.022;7.604;2023-06-22T15:08:23;23.80;99.90
41344;DHT22;27089;50.022;7.604;2023-06-22T15:10:51;23.70;99.90
41344;DHT22;27089;50.022;7.604;2023-06-22T15:13:19;23.70;99.90
41344;DHT22;27089;50.022;7.604;2023-06-22T15:15:47;23.60;99.90
41344;DHT22;27089;50.022;7.604;2023-06-22T15:18:14;23.30;99.90
41344;DHT22;27089;50.022;7.604;2023-06-22T15:20:41;23.00;99.90
41344;DHT22;27089;50.022;7.604;2023-06-22T15:23:11;22.80;99.90
41344;DHT22;27089;50.022;7.604;2023-06-22T15:25:38;22.50;99.90
41344;DHT22;27089;50.022;7.604;2023-06-22T15:28:05;22.40;99.90
41344;DHT22;27089;50.022;7.604;2023-06-22T15:30:35;22.50;99.90
41344;DHT22;27089;50.022;7.604;2023-06-22T15:33:02;22.60;99.90